2 月 20 日 (星期三) | 會員登記|會員中心
買賣區主頁 > 手錶 > 所有手錶
瑞士司馬
HK$1,350
所有物品 | 出售 | 徵求 排序 :  更新時間 | 刊登時間
 圖片 標題 價格 賣方/買方 瀏覽 更新時間
Victorinox Swiss Army Light Blue Light White and Red Spot 100%OriginalHK$999eeccyykk24720/02 17:43
Victorinox Swiss Army Chronograph quartz 27 jewels 100% originalHK$1,999eeccyykk23520/02 17:43
綺年華 Eterna-Matic Super Kontiki 300m 潛水表HK$10,000xiuhing520/02 17:41
十大名表JLC積家8日鏈萬年曆全套,型號1618420HK$97,000mexxmexx1020/02 17:40
95成新80年代古董精工錶HK$800bikram4320/02 17:39
 Sell 98% new Seiko Kinetic Watch full sets with box and invoiceHK$1,200bikram14720/02 17:39
Casio Baby-G BA-112....五成新HK$100WooW881520/02 17:31
 90% new Apple Watch Series 2 42mm Nike+ $1300HK$1,000fcukmann47620/02 17:29
 CASIO EQS-910L-1AV 行貨有保養HK$900waydhhk12220/02 17:27
Katharine Hamnett London 女裝 手錶 (原價$2,500)HK$980narumi521620/02 17:25
智能手表電話HK$100Leo8666682020/02 17:24
全新 apple watch series 3 (38mm) GPS + LTE 玫瑰金HK$2,000Snufkinchung2120/02 17:18
Ticwatch 2 (大陸版)HK$499mimi200128120/02 17:02
Omega Speedmaster Moonwatch 經典登月錶 3590.5000 原庄T面 密底膠面 lemania 861HK$26,800shunghinn53720/02 17:00
沛納海18K白金Panerai PAM 376 Radiomir 3 Days California not Rolex IWCHK$109,999blackghosthk49620/02 16:59
勞力士Rolex GMT Master 百事可樂黑面紅籃圈16700全原裝有保養HK$74,999blackghosthk58720/02 16:59
Rolex Daytona 18K white gold 116509 勞力士白金迪通拿2018年4月錶全套HK$219,000blackghosthk3820/02 16:59
Tudor 7962大花HK$7,000hong252816120/02 16:58
Garmin forerunner 225,235,630 高清保護貼、防指紋貼,9H鋼化膜HK$20dvb11120/02 16:58
Rolex Yachtmaster II 勞力士九成新,116680行貨2017年錶全套齊,有保養HK$114,999blackghosthk3220/02 16:58
Apple Watch Series 2 - 42mm 黑色 【等待確認】HK$1,000121384616220/02 16:58
CASIO G-Shock 5146 - 99%新HK$850jackymanki7420/02 16:56
CASIO G-Shock 5146 5425 - 99%新HK$800jackymanki9120/02 16:56
CASIO BABY-G 5288 99%新HK$350jackymanki5820/02 16:56
勞力士卡片皮套HK$4501100335620/02 16:50
原裝Apple watch 44mm 鋼織錶帶 【等待確認】HK$1,000eviljohnson37220/02 16:49
全新(SWATCH)精工SEIKO計時手錶!!原價$2700,割愛價$1800!!HK$1,800陳刀仔26520/02 16:45
全新 TED BAKER WOMEN’S WATCH 花花女裝錶HK$799sentinelxs7120/02 16:44
 全新Michael Kors Access Activity Tracker 運動手帶 Hybrid Smart WatchBandHK$599sentinelxs15720/02 16:44
 Tag Heuer Aquaracer Black PhantomHK$13,000icq4676147913120/02 16:42